sensor_id;sensor_type;location;lat;lon;timestamp;pressure;altitude;pressure_sealevel;temperature;humidity
4981;BME280;2507;50.392;7.482;2022-07-05T00:00:10;101173.31;;;18.13;58.66
4981;BME280;2507;50.392;7.482;2022-07-05T00:02:36;101177.53;;;18.16;58.27
4981;BME280;2507;50.392;7.482;2022-07-05T00:05:02;101173.88;;;18.07;58.53
4981;BME280;2507;50.392;7.482;2022-07-05T00:07:28;101170.81;;;18.02;58.27
4981;BME280;2507;50.392;7.482;2022-07-05T00:09:55;101176.13;;;18.02;58.17
4981;BME280;2507;50.392;7.482;2022-07-05T00:12:25;101177.97;;;17.92;58.40
4981;BME280;2507;50.392;7.482;2022-07-05T00:14:51;101180.09;;;17.89;58.57
4981;BME280;2507;50.392;7.482;2022-07-05T00:17:16;101182.59;;;17.81;58.97
4981;BME280;2507;50.392;7.482;2022-07-05T00:19:42;101187.75;;;17.73;59.97
4981;BME280;2507;50.392;7.482;2022-07-05T00:22:08;101185.41;;;17.79;59.48
4981;BME280;2507;50.392;7.482;2022-07-05T00:24:33;101186.09;;;17.81;59.33
4981;BME280;2507;50.392;7.482;2022-07-05T00:26:58;101181.63;;;17.63;59.58
4981;BME280;2507;50.392;7.482;2022-07-05T00:29:24;101182.75;;;17.51;60.48
4981;BME280;2507;50.392;7.482;2022-07-05T00:31:49;101186.34;;;17.50;60.27
4981;BME280;2507;50.392;7.482;2022-07-05T00:34:15;101187.34;;;17.49;59.98
4981;BME280;2507;50.392;7.482;2022-07-05T00:36:40;101187.56;;;17.46;59.97
4981;BME280;2507;50.392;7.482;2022-07-05T00:39:06;101197.63;;;17.42;60.22
4981;BME280;2507;50.392;7.482;2022-07-05T00:41:32;101202.84;;;17.04;61.92
4981;BME280;2507;50.392;7.482;2022-07-05T00:44:00;101208.56;;;16.69;63.49
4981;BME280;2507;50.392;7.482;2022-07-05T00:46:26;101208.53;;;16.60;63.91
4981;BME280;2507;50.392;7.482;2022-07-05T00:48:52;101195.88;;;16.73;63.36
4981;BME280;2507;50.392;7.482;2022-07-05T00:51:18;101203.38;;;16.88;62.77
4981;BME280;2507;50.392;7.482;2022-07-05T00:53:43;101192.53;;;17.01;62.02
4981;BME280;2507;50.392;7.482;2022-07-05T00:56:10;101201.31;;;17.01;62.37
4981;BME280;2507;50.392;7.482;2022-07-05T00:58:35;101202.03;;;17.03;62.00
4981;BME280;2507;50.392;7.482;2022-07-05T01:01:06;101202.59;;;17.07;61.92
4981;BME280;2507;50.392;7.482;2022-07-05T01:03:32;101200.75;;;16.98;62.32
4981;BME280;2507;50.392;7.482;2022-07-05T01:06:00;101204.78;;;16.92;62.55
4981;BME280;2507;50.392;7.482;2022-07-05T01:08:28;101203.19;;;16.80;63.25
4981;BME280;2507;50.392;7.482;2022-07-05T01:10:54;101204.78;;;16.62;63.33
4981;BME280;2507;50.392;7.482;2022-07-05T01:13:20;101209.84;;;16.65;63.61
4981;BME280;2507;50.392;7.482;2022-07-05T01:15:46;101210.53;;;16.67;63.59
4981;BME280;2507;50.392;7.482;2022-07-05T01:18:12;101207.63;;;16.70;64.12
4981;BME280;2507;50.392;7.482;2022-07-05T01:20:37;101201.66;;;16.78;64.00
4981;BME280;2507;50.392;7.482;2022-07-05T01:23:03;101203.31;;;16.79;63.96
4981;BME280;2507;50.392;7.482;2022-07-05T01:25:30;101206.69;;;16.81;64.06
4981;BME280;2507;50.392;7.482;2022-07-05T01:27:57;101195.94;;;16.82;63.73
4981;BME280;2507;50.392;7.482;2022-07-05T01:30:23;101202.47;;;16.78;64.17
4981;BME280;2507;50.392;7.482;2022-07-05T01:32:49;101202.75;;;16.75;64.32
4981;BME280;2507;50.392;7.482;2022-07-05T01:35:15;101198.88;;;16.79;63.81
4981;BME280;2507;50.392;7.482;2022-07-05T01:37:46;101201.78;;;16.76;63.89
4981;BME280;2507;50.392;7.482;2022-07-05T01:40:11;101205.91;;;16.69;64.10
4981;BME280;2507;50.392;7.482;2022-07-05T01:42:38;101212.00;;;16.60;65.00
4981;BME280;2507;50.392;7.482;2022-07-05T01:45:04;101213.56;;;16.42;65.65
4981;BME280;2507;50.392;7.482;2022-07-05T01:47:37;101208.09;;;16.34;65.25
4981;BME280;2507;50.392;7.482;2022-07-05T01:50:05;101218.28;;;16.38;65.62
4981;BME280;2507;50.392;7.482;2022-07-05T01:52:31;101217.63;;;16.46;65.18
4981;BME280;2507;50.392;7.482;2022-07-05T01:55:00;101212.56;;;16.54;64.44
4981;BME280;2507;50.392;7.482;2022-07-05T01:57:27;101220.75;;;16.51;64.69
4981;BME280;2507;50.392;7.482;2022-07-05T01:59:52;101209.59;;;16.48;65.03
4981;BME280;2507;50.392;7.482;2022-07-05T02:02:18;101208.50;;;16.50;65.34
4981;BME280;2507;50.392;7.482;2022-07-05T02:04:43;101214.06;;;16.47;65.52
4981;BME280;2507;50.392;7.482;2022-07-05T02:07:09;101207.66;;;16.50;65.68
4981;BME280;2507;50.392;7.482;2022-07-05T02:09:34;101213.53;;;16.53;65.87
4981;BME280;2507;50.392;7.482;2022-07-05T02:12:01;101209.13;;;16.63;65.58
4981;BME280;2507;50.392;7.482;2022-07-05T02:14:28;101219.63;;;16.74;65.02
4981;BME280;2507;50.392;7.482;2022-07-05T02:16:53;101213.06;;;16.69;64.87
4981;BME280;2507;50.392;7.482;2022-07-05T02:19:19;101217.56;;;16.36;65.56
4981;BME280;2507;50.392;7.482;2022-07-05T02:21:44;101229.84;;;15.96;66.80
4981;BME280;2507;50.392;7.482;2022-07-05T02:24:09;101222.63;;;15.67;67.93
4981;BME280;2507;50.392;7.482;2022-07-05T02:26:35;101226.50;;;15.63;67.92
4981;BME280;2507;50.392;7.482;2022-07-05T02:29:02;101228.41;;;15.61;68.77
4981;BME280;2507;50.392;7.482;2022-07-05T02:31:28;101231.88;;;15.72;68.62
4981;BME280;2507;50.392;7.482;2022-07-05T02:33:53;101228.78;;;15.88;67.67
4981;BME280;2507;50.392;7.482;2022-07-05T02:36:19;101227.53;;;16.03;67.23
4981;BME280;2507;50.392;7.482;2022-07-05T02:38:45;101231.22;;;16.11;66.50
4981;BME280;2507;50.392;7.482;2022-07-05T02:41:11;101235.56;;;16.12;66.88
4981;BME280;2507;50.392;7.482;2022-07-05T02:43:38;101239.72;;;16.15;66.92
4981;BME280;2507;50.392;7.482;2022-07-05T02:46:04;101240.97;;;16.31;66.21
4981;BME280;2507;50.392;7.482;2022-07-05T02:48:31;101242.31;;;16.47;65.88
4981;BME280;2507;50.392;7.482;2022-07-05T02:50:56;101245.94;;;16.46;65.20
4981;BME280;2507;50.392;7.482;2022-07-05T02:53:22;101238.44;;;16.30;66.13
4981;BME280;2507;50.392;7.482;2022-07-05T02:55:47;101243.56;;;16.43;65.53
4981;BME280;2507;50.392;7.482;2022-07-05T02:58:12;101240.03;;;16.32;66.11
4981;BME280;2507;50.392;7.482;2022-07-05T03:00:38;101242.78;;;16.31;66.01
4981;BME280;2507;50.392;7.482;2022-07-05T03:03:03;101240.47;;;16.38;65.97
4981;BME280;2507;50.392;7.482;2022-07-05T03:05:28;101234.88;;;16.41;65.97
4981;BME280;2507;50.392;7.482;2022-07-05T03:07:54;101232.41;;;16.60;65.31
4981;BME280;2507;50.392;7.482;2022-07-05T03:10:19;101240.94;;;16.63;64.22
4981;BME280;2507;50.392;7.482;2022-07-05T03:12:44;101246.16;;;16.12;66.31
4981;BME280;2507;50.392;7.482;2022-07-05T03:15:10;101245.38;;;16.21;66.21
4981;BME280;2507;50.392;7.482;2022-07-05T03:17:35;101247.50;;;16.27;65.70
4981;BME280;2507;50.392;7.482;2022-07-05T03:20:00;101245.31;;;16.32;65.72
4981;BME280;2507;50.392;7.482;2022-07-05T03:22:26;101244.63;;;16.40;65.34
4981;BME280;2507;50.392;7.482;2022-07-05T03:24:51;101242.28;;;16.58;65.05
4981;BME280;2507;50.392;7.482;2022-07-05T03:27:16;101235.94;;;16.70;64.42
4981;BME280;2507;50.392;7.482;2022-07-05T03:29:42;101237.28;;;16.64;64.82
4981;BME280;2507;50.392;7.482;2022-07-05T03:32:07;101241.94;;;16.72;64.53
4981;BME280;2507;50.392;7.482;2022-07-05T03:34:32;101249.63;;;16.75;64.52
4981;BME280;2507;50.392;7.482;2022-07-05T03:36:57;101248.25;;;16.80;64.37
4981;BME280;2507;50.392;7.482;2022-07-05T03:39:23;101252.41;;;16.73;64.76
4981;BME280;2507;50.392;7.482;2022-07-05T03:41:48;101245.03;;;16.77;64.82
4981;BME280;2507;50.392;7.482;2022-07-05T03:44:13;101245.94;;;16.66;65.10
4981;BME280;2507;50.392;7.482;2022-07-05T03:46:39;101254.41;;;16.60;65.58
4981;BME280;2507;50.392;7.482;2022-07-05T03:49:04;101244.59;;;16.72;64.98
4981;BME280;2507;50.392;7.482;2022-07-05T03:51:29;101253.47;;;16.91;64.56
4981;BME280;2507;50.392;7.482;2022-07-05T03:53:55;101251.94;;;16.89;64.50
4981;BME280;2507;50.392;7.482;2022-07-05T03:56:20;101249.81;;;16.83;64.81
4981;BME280;2507;50.392;7.482;2022-07-05T03:58:51;101255.25;;;16.81;64.95
4981;BME280;2507;50.392;7.482;2022-07-05T04:01:16;101251.97;;;16.98;64.53
4981;BME280;2507;50.392;7.482;2022-07-05T04:03:42;101256.34;;;17.09;64.06
4981;BME280;2507;50.392;7.482;2022-07-05T04:06:10;101248.41;;;17.18;63.80
4981;BME280;2507;50.392;7.482;2022-07-05T04:08:36;101252.31;;;17.14;63.26
4981;BME280;2507;50.392;7.482;2022-07-05T04:11:02;101257.03;;;17.11;64.08
4981;BME280;2507;50.392;7.482;2022-07-05T04:13:27;101253.09;;;16.96;64.29
4981;BME280;2507;50.392;7.482;2022-07-05T04:15:52;101256.25;;;16.90;65.36
4981;BME280;2507;50.392;7.482;2022-07-05T04:18:18;101266.00;;;16.89;65.34
4981;BME280;2507;50.392;7.482;2022-07-05T04:20:43;101263.50;;;17.27;64.51
4981;BME280;2507;50.392;7.482;2022-07-05T04:23:09;101264.34;;;17.68;63.68
4981;BME280;2507;50.392;7.482;2022-07-05T04:25:34;101274.16;;;18.05;63.49
4981;BME280;2507;50.392;7.482;2022-07-05T04:27:59;101269.16;;;18.87;60.74
4981;BME280;2507;50.392;7.482;2022-07-05T04:30:25;101269.09;;;20.13;57.67
4981;BME280;2507;50.392;7.482;2022-07-05T04:32:51;101269.28;;;21.40;53.68
4981;BME280;2507;50.392;7.482;2022-07-05T04:35:16;101272.13;;;22.52;50.83
4981;BME280;2507;50.392;7.482;2022-07-05T04:37:42;101275.72;;;23.46;47.78
4981;BME280;2507;50.392;7.482;2022-07-05T04:40:10;101276.44;;;23.71;47.15
4981;BME280;2507;50.392;7.482;2022-07-05T04:42:35;101278.63;;;24.58;45.43
4981;BME280;2507;50.392;7.482;2022-07-05T04:45:01;101276.75;;;25.39;43.44
4981;BME280;2507;50.392;7.482;2022-07-05T04:47:26;101280.38;;;26.03;42.51
4981;BME280;2507;50.392;7.482;2022-07-05T04:49:53;101287.91;;;26.84;40.20
4981;BME280;2507;50.392;7.482;2022-07-05T04:52:18;101284.53;;;27.37;38.67
4981;BME280;2507;50.392;7.482;2022-07-05T04:54:43;101280.47;;;27.54;39.07
4981;BME280;2507;50.392;7.482;2022-07-05T04:57:09;101284.84;;;27.62;39.02
4981;BME280;2507;50.392;7.482;2022-07-05T04:59:34;101287.06;;;28.12;38.23
4981;BME280;2507;50.392;7.482;2022-07-05T05:01:59;101278.31;;;28.49;37.22
4981;BME280;2507;50.392;7.482;2022-07-05T05:04:25;101286.03;;;28.85;36.16
4981;BME280;2507;50.392;7.482;2022-07-05T05:06:50;101283.31;;;28.98;35.76
4981;BME280;2507;50.392;7.482;2022-07-05T05:09:15;101284.34;;;28.84;35.27
4981;BME280;2507;50.392;7.482;2022-07-05T05:11:40;101280.19;;;28.88;35.33
4981;BME280;2507;50.392;7.482;2022-07-05T05:14:06;101279.53;;;29.63;34.62
4981;BME280;2507;50.392;7.482;2022-07-05T05:16:31;101277.63;;;30.07;33.83
4981;BME280;2507;50.392;7.482;2022-07-05T05:18:56;101279.59;;;30.25;33.63
4981;BME280;2507;50.392;7.482;2022-07-05T05:21:21;101285.88;;;30.50;33.53
4981;BME280;2507;50.392;7.482;2022-07-05T05:23:47;101281.50;;;30.49;33.62
4981;BME280;2507;50.392;7.482;2022-07-05T05:26:13;101290.22;;;30.51;33.54
4981;BME280;2507;50.392;7.482;2022-07-05T05:28:38;101287.50;;;30.76;33.40
4981;BME280;2507;50.392;7.482;2022-07-05T05:31:04;101291.66;;;31.39;32.39
4981;BME280;2507;50.392;7.482;2022-07-05T05:33:29;101290.88;;;31.98;31.79
4981;BME280;2507;50.392;7.482;2022-07-05T05:35:55;101298.63;;;32.36;31.03
4981;BME280;2507;50.392;7.482;2022-07-05T05:38:20;101299.09;;;31.91;31.21
4981;BME280;2507;50.392;7.482;2022-07-05T05:40:45;101293.84;;;32.49;30.65
4981;BME280;2507;50.392;7.482;2022-07-05T05:43:11;101291.53;;;33.50;29.57
4981;BME280;2507;50.392;7.482;2022-07-05T05:45:36;101297.63;;;34.58;27.77
4981;BME280;2507;50.392;7.482;2022-07-05T05:48:02;101294.38;;;35.38;26.83
4981;BME280;2507;50.392;7.482;2022-07-05T05:50:30;101300.16;;;34.98;27.51
4981;BME280;2507;50.392;7.482;2022-07-05T05:52:55;101300.13;;;35.84;26.26
4981;BME280;2507;50.392;7.482;2022-07-05T05:55:22;101303.88;;;36.32;25.86
4981;BME280;2507;50.392;7.482;2022-07-05T05:57:48;101302.91;;;36.11;25.91
4981;BME280;2507;50.392;7.482;2022-07-05T06:00:14;101305.66;;;34.86;27.38
4981;BME280;2507;50.392;7.482;2022-07-05T06:02:43;101300.69;;;33.72;27.96
4981;BME280;2507;50.392;7.482;2022-07-05T06:05:09;101302.56;;;33.72;29.04
4981;BME280;2507;50.392;7.482;2022-07-05T06:07:49;101303.16;;;34.02;28.16
4981;BME280;2507;50.392;7.482;2022-07-05T06:10:17;101305.38;;;33.37;28.68
4981;BME280;2507;50.392;7.482;2022-07-05T06:12:42;101313.28;;;34.18;27.96
4981;BME280;2507;50.392;7.482;2022-07-05T06:15:08;101317.19;;;35.27;26.87
4981;BME280;2507;50.392;7.482;2022-07-05T06:17:37;101314.38;;;33.38;29.12
4981;BME280;2507;50.392;7.482;2022-07-05T06:20:10;101318.91;;;33.72;28.36
4981;BME280;2507;50.392;7.482;2022-07-05T06:22:36;101312.28;;;35.29;27.15
4981;BME280;2507;50.392;7.482;2022-07-05T06:25:02;101319.75;;;36.03;26.27
4981;BME280;2507;50.392;7.482;2022-07-05T06:27:27;101315.47;;;36.75;25.75
4981;BME280;2507;50.392;7.482;2022-07-05T06:29:53;101311.31;;;35.56;26.45
4981;BME280;2507;50.392;7.482;2022-07-05T06:32:18;101317.84;;;34.95;27.19
4981;BME280;2507;50.392;7.482;2022-07-05T06:34:43;101315.03;;;35.72;26.67
4981;BME280;2507;50.392;7.482;2022-07-05T06:37:08;101312.56;;;35.27;26.59
4981;BME280;2507;50.392;7.482;2022-07-05T06:39:34;101313.16;;;34.74;26.84
4981;BME280;2507;50.392;7.482;2022-07-05T06:41:59;101314.63;;;34.04;28.06
4981;BME280;2507;50.392;7.482;2022-07-05T06:44:24;101314.78;;;34.26;27.88
4981;BME280;2507;50.392;7.482;2022-07-05T06:46:50;101310.81;;;35.00;26.86
4981;BME280;2507;50.392;7.482;2022-07-05T06:49:15;101312.25;;;34.08;27.77
4981;BME280;2507;50.392;7.482;2022-07-05T06:51:41;101315.50;;;33.14;28.76
4981;BME280;2507;50.392;7.482;2022-07-05T06:54:06;101315.63;;;33.07;29.65
4981;BME280;2507;50.392;7.482;2022-07-05T06:56:31;101320.34;;;31.29;31.17
4981;BME280;2507;50.392;7.482;2022-07-05T06:58:56;101314.16;;;31.76;31.32
4981;BME280;2507;50.392;7.482;2022-07-05T07:01:22;101314.03;;;33.34;28.77
4981;BME280;2507;50.392;7.482;2022-07-05T07:03:47;101315.59;;;33.30;28.83
4981;BME280;2507;50.392;7.482;2022-07-05T07:06:12;101312.41;;;33.73;27.78
4981;BME280;2507;50.392;7.482;2022-07-05T07:08:38;101324.56;;;33.54;28.42
4981;BME280;2507;50.392;7.482;2022-07-05T07:11:21;101319.81;;;33.89;28.51
4981;BME280;2507;50.392;7.482;2022-07-05T07:13:47;101320.16;;;35.25;26.86
4981;BME280;2507;50.392;7.482;2022-07-05T07:16:12;101324.53;;;36.18;26.16
4981;BME280;2507;50.392;7.482;2022-07-05T07:18:37;101325.00;;;34.19;27.75
4981;BME280;2507;50.392;7.482;2022-07-05T07:21:02;101322.00;;;33.64;28.66
4981;BME280;2507;50.392;7.482;2022-07-05T07:23:28;101322.25;;;33.11;29.28
4981;BME280;2507;50.392;7.482;2022-07-05T07:25:53;101321.22;;;32.36;29.88
4981;BME280;2507;50.392;7.482;2022-07-05T07:28:18;101325.44;;;33.71;28.76
4981;BME280;2507;50.392;7.482;2022-07-05T07:30:43;101332.50;;;33.21;28.69
4981;BME280;2507;50.392;7.482;2022-07-05T07:33:09;101326.31;;;35.16;27.20
4981;BME280;2507;50.392;7.482;2022-07-05T07:35:34;101326.91;;;36.67;25.25
4981;BME280;2507;50.392;7.482;2022-07-05T07:37:59;101330.19;;;36.69;24.85
4981;BME280;2507;50.392;7.482;2022-07-05T07:40:24;101327.88;;;37.30;24.94
4981;BME280;2507;50.392;7.482;2022-07-05T07:42:50;101327.59;;;38.13;24.42
4981;BME280;2507;50.392;7.482;2022-07-05T07:45:15;101334.00;;;37.57;24.56
4981;BME280;2507;50.392;7.482;2022-07-05T07:47:40;101333.97;;;37.47;24.83
4981;BME280;2507;50.392;7.482;2022-07-05T07:50:06;101330.09;;;38.15;23.51
4981;BME280;2507;50.392;7.482;2022-07-05T07:52:32;101330.41;;;38.38;23.32
4981;BME280;2507;50.392;7.482;2022-07-05T07:54:59;101331.16;;;38.14;23.79
4981;BME280;2507;50.392;7.482;2022-07-05T07:57:24;101330.72;;;36.66;24.94
4981;BME280;2507;50.392;7.482;2022-07-05T07:59:50;101320.63;;;37.70;23.94
4981;BME280;2507;50.392;7.482;2022-07-05T08:02:15;101328.34;;;37.73;23.74
4981;BME280;2507;50.392;7.482;2022-07-05T08:04:42;101320.09;;;39.29;22.49
4981;BME280;2507;50.392;7.482;2022-07-05T08:07:07;101319.56;;;39.81;22.22
4981;BME280;2507;50.392;7.482;2022-07-05T08:09:33;101320.56;;;39.56;22.84
4981;BME280;2507;50.392;7.482;2022-07-05T08:11:58;101316.94;;;38.67;23.12
4981;BME280;2507;50.392;7.482;2022-07-05T08:14:23;101318.59;;;36.89;24.84
4981;BME280;2507;50.392;7.482;2022-07-05T08:16:49;101321.88;;;37.33;24.24
4981;BME280;2507;50.392;7.482;2022-07-05T08:19:14;101309.59;;;36.99;24.70
4981;BME280;2507;50.392;7.482;2022-07-05T08:21:58;101317.69;;;37.20;24.16
4981;BME280;2507;50.392;7.482;2022-07-05T08:24:23;101308.69;;;38.72;23.63
4981;BME280;2507;50.392;7.482;2022-07-05T08:26:49;101314.56;;;39.49;22.87
4981;BME280;2507;50.392;7.482;2022-07-05T08:29:14;101306.94;;;39.21;22.87
4981;BME280;2507;50.392;7.482;2022-07-05T08:31:42;101299.72;;;40.28;22.15
4981;BME280;2507;50.392;7.482;2022-07-05T08:34:08;101304.44;;;40.85;21.64
4981;BME280;2507;50.392;7.482;2022-07-05T08:36:34;101302.03;;;39.72;21.73
4981;BME280;2507;50.392;7.482;2022-07-05T08:39:00;101307.00;;;37.24;24.31
4981;BME280;2507;50.392;7.482;2022-07-05T08:41:25;101293.47;;;34.72;26.53
4981;BME280;2507;50.392;7.482;2022-07-05T08:43:51;101293.09;;;34.03;27.89
4981;BME280;2507;50.392;7.482;2022-07-05T08:46:17;101295.34;;;34.88;26.92
4981;BME280;2507;50.392;7.482;2022-07-05T08:48:47;101291.78;;;34.71;26.74
4981;BME280;2507;50.392;7.482;2022-07-05T08:51:14;101298.41;;;33.53;27.99
4981;BME280;2507;50.392;7.482;2022-07-05T08:53:42;101289.03;;;33.37;28.11
4981;BME280;2507;50.392;7.482;2022-07-05T08:56:09;101299.00;;;34.94;26.65
4981;BME280;2507;50.392;7.482;2022-07-05T08:58:35;101295.91;;;32.36;29.32
4981;BME280;2507;50.392;7.482;2022-07-05T09:01:01;101288.69;;;33.34;29.10
4981;BME280;2507;50.392;7.482;2022-07-05T09:03:34;101284.34;;;33.21;28.46
4981;BME280;2507;50.392;7.482;2022-07-05T09:06:05;101290.50;;;31.94;30.92
4981;BME280;2507;50.392;7.482;2022-07-05T09:08:32;101285.13;;;31.88;30.50
4981;BME280;2507;50.392;7.482;2022-07-05T09:11:04;101289.38;;;30.82;31.38
4981;BME280;2507;50.392;7.482;2022-07-05T09:13:34;101286.31;;;29.41;33.48
4981;BME280;2507;50.392;7.482;2022-07-05T09:16:00;101286.03;;;28.78;33.23
4981;BME280;2507;50.392;7.482;2022-07-05T09:23:54;101286.50;;;27.63;36.54
4981;BME280;2507;50.392;7.482;2022-07-05T09:26:42;101282.94;;;27.62;35.79
4981;BME280;2507;50.392;7.482;2022-07-05T09:29:14;101280.56;;;27.87;36.03
4981;BME280;2507;50.392;7.482;2022-07-05T09:31:42;101281.81;;;27.37;36.49
4981;BME280;2507;50.392;7.482;2022-07-05T09:34:09;101281.22;;;27.07;36.79
4981;BME280;2507;50.392;7.482;2022-07-05T09:36:53;101288.53;;;27.13;36.95
4981;BME280;2507;50.392;7.482;2022-07-05T09:39:39;101285.41;;;26.76;37.07
4981;BME280;2507;50.392;7.482;2022-07-05T09:42:16;101285.19;;;26.77;37.78
4981;BME280;2507;50.392;7.482;2022-07-05T09:44:53;101280.09;;;26.89;36.91
4981;BME280;2507;50.392;7.482;2022-07-05T09:47:20;101282.47;;;27.05;37.43
4981;BME280;2507;50.392;7.482;2022-07-05T09:52:33;101284.63;;;26.61;38.26
4981;BME280;2507;50.392;7.482;2022-07-05T09:55:08;101278.16;;;26.55;35.89
4981;BME280;2507;50.392;7.482;2022-07-05T09:57:36;101274.38;;;26.50;35.63
4981;BME280;2507;50.392;7.482;2022-07-05T10:02:42;101289.50;;;26.99;36.67
4981;BME280;2507;50.392;7.482;2022-07-05T10:05:12;101285.44;;;26.82;36.18
4981;BME280;2507;50.392;7.482;2022-07-05T10:07:46;101283.91;;;27.01;34.74
4981;BME280;2507;50.392;7.482;2022-07-05T10:10:14;101279.41;;;27.55;34.57
4981;BME280;2507;50.392;7.482;2022-07-05T10:12:42;101276.16;;;27.86;34.30
4981;BME280;2507;50.392;7.482;2022-07-05T10:15:10;101283.22;;;27.80;33.06
4981;BME280;2507;50.392;7.482;2022-07-05T10:17:46;101286.28;;;27.58;33.27
4981;BME280;2507;50.392;7.482;2022-07-05T10:20:19;101281.25;;;27.42;33.96
4981;BME280;2507;50.392;7.482;2022-07-05T10:22:46;101277.75;;;27.54;33.38
4981;BME280;2507;50.392;7.482;2022-07-05T10:25:13;101284.38;;;28.38;32.94
4981;BME280;2507;50.392;7.482;2022-07-05T10:27:39;101286.44;;;28.10;34.30
4981;BME280;2507;50.392;7.482;2022-07-05T10:30:05;101277.09;;;28.26;34.39
4981;BME280;2507;50.392;7.482;2022-07-05T10:32:33;101282.69;;;28.17;33.92
4981;BME280;2507;50.392;7.482;2022-07-05T10:34:59;101272.84;;;27.77;33.92
4981;BME280;2507;50.392;7.482;2022-07-05T10:37:26;101280.28;;;27.69;34.23
4981;BME280;2507;50.392;7.482;2022-07-05T10:39:55;101273.47;;;27.79;34.37
4981;BME280;2507;50.392;7.482;2022-07-05T10:42:22;101271.06;;;28.37;33.77
4981;BME280;2507;50.392;7.482;2022-07-05T10:44:48;101269.94;;;27.79;34.36
4981;BME280;2507;50.392;7.482;2022-07-05T10:47:13;101277.19;;;27.72;34.40
4981;BME280;2507;50.392;7.482;2022-07-05T10:49:40;101272.59;;;27.66;34.16
4981;BME280;2507;50.392;7.482;2022-07-05T10:52:21;101266.91;;;28.28;34.79
4981;BME280;2507;50.392;7.482;2022-07-05T10:55:19;101265.84;;;27.96;34.47
4981;BME280;2507;50.392;7.482;2022-07-05T11:00:43;101264.00;;;27.43;36.21
4981;BME280;2507;50.392;7.482;2022-07-05T11:03:33;101261.75;;;27.05;36.63
4981;BME280;2507;50.392;7.482;2022-07-05T11:06:00;101266.09;;;26.51;36.37
4981;BME280;2507;50.392;7.482;2022-07-05T11:08:27;101267.16;;;26.50;36.86
4981;BME280;2507;50.392;7.482;2022-07-05T11:11:12;101266.56;;;26.82;37.13
4981;BME280;2507;50.392;7.482;2022-07-05T11:13:40;101270.00;;;26.97;36.14
4981;BME280;2507;50.392;7.482;2022-07-05T11:16:21;101265.53;;;27.17;35.94
4981;BME280;2507;50.392;7.482;2022-07-05T11:18:49;101259.94;;;27.25;35.84
4981;BME280;2507;50.392;7.482;2022-07-05T11:21:20;101255.91;;;27.36;34.43
4981;BME280;2507;50.392;7.482;2022-07-05T11:23:46;101254.53;;;27.66;34.96
4981;BME280;2507;50.392;7.482;2022-07-05T11:26:12;101241.84;;;27.54;34.72
4981;BME280;2507;50.392;7.482;2022-07-05T11:28:44;101252.91;;;27.24;35.24
4981;BME280;2507;50.392;7.482;2022-07-05T11:31:10;101255.97;;;27.15;36.00
4981;BME280;2507;50.392;7.482;2022-07-05T11:36:05;101250.78;;;27.61;35.25
4981;BME280;2507;50.392;7.482;2022-07-05T11:38:31;101246.88;;;27.70;34.00
4981;BME280;2507;50.392;7.482;2022-07-05T11:41:11;101251.53;;;28.15;33.41
4981;BME280;2507;50.392;7.482;2022-07-05T11:43:36;101257.78;;;28.74;33.84
4981;BME280;2507;50.392;7.482;2022-07-05T11:46:02;101232.63;;;28.02;35.17
4981;BME280;2507;50.392;7.482;2022-07-05T11:48:28;101240.28;;;27.92;34.38
4981;BME280;2507;50.392;7.482;2022-07-05T11:50:54;101241.16;;;27.92;33.79
4981;BME280;2507;50.392;7.482;2022-07-05T11:53:27;101239.38;;;27.59;33.80
4981;BME280;2507;50.392;7.482;2022-07-05T11:55:55;101227.56;;;27.60;34.45
4981;BME280;2507;50.392;7.482;2022-07-05T11:58:22;101232.75;;;27.68;34.30
4981;BME280;2507;50.392;7.482;2022-07-05T12:00:53;101233.88;;;27.99;34.44
4981;BME280;2507;50.392;7.482;2022-07-05T12:03:19;101235.75;;;28.18;33.86
4981;BME280;2507;50.392;7.482;2022-07-05T12:05:44;101223.66;;;27.88;33.73
4981;BME280;2507;50.392;7.482;2022-07-05T12:08:10;101232.59;;;27.89;33.84
4981;BME280;2507;50.392;7.482;2022-07-05T12:10:36;101229.66;;;27.84;33.28
4981;BME280;2507;50.392;7.482;2022-07-05T12:13:19;101221.75;;;27.69;34.06
4981;BME280;2507;50.392;7.482;2022-07-05T12:15:45;101219.50;;;27.86;33.36
4981;BME280;2507;50.392;7.482;2022-07-05T12:18:11;101226.19;;;28.49;32.53
4981;BME280;2507;50.392;7.482;2022-07-05T12:20:39;101214.50;;;28.81;32.10
4981;BME280;2507;50.392;7.482;2022-07-05T12:23:05;101221.53;;;28.95;32.14
4981;BME280;2507;50.392;7.482;2022-07-05T12:25:32;101209.38;;;28.20;32.15
4981;BME280;2507;50.392;7.482;2022-07-05T12:27:59;101214.16;;;28.32;32.27
4981;BME280;2507;50.392;7.482;2022-07-05T12:30:27;101213.31;;;28.05;31.91
4981;BME280;2507;50.392;7.482;2022-07-05T12:35:29;101222.44;;;28.04;32.53
4981;BME280;2507;50.392;7.482;2022-07-05T12:37:55;101209.16;;;28.02;32.17
4981;BME280;2507;50.392;7.482;2022-07-05T12:40:22;101213.13;;;28.06;32.24
4981;BME280;2507;50.392;7.482;2022-07-05T12:43:00;101217.28;;;27.96;31.69
4981;BME280;2507;50.392;7.482;2022-07-05T12:45:25;101211.47;;;28.12;32.52
4981;BME280;2507;50.392;7.482;2022-07-05T12:47:52;101208.13;;;27.97;32.23
4981;BME280;2507;50.392;7.482;2022-07-05T12:50:21;101209.34;;;28.40;32.24
4981;BME280;2507;50.392;7.482;2022-07-05T12:53:04;101211.25;;;28.27;32.78
4981;BME280;2507;50.392;7.482;2022-07-05T12:55:50;101209.78;;;28.31;31.55
4981;BME280;2507;50.392;7.482;2022-07-05T12:58:45;101213.72;;;28.15;32.58
4981;BME280;2507;50.392;7.482;2022-07-05T13:01:43;101212.91;;;28.08;32.39
4981;BME280;2507;50.392;7.482;2022-07-05T13:04:16;101208.25;;;27.63;33.72
4981;BME280;2507;50.392;7.482;2022-07-05T13:06:43;101206.00;;;27.79;33.14
4981;BME280;2507;50.392;7.482;2022-07-05T13:09:11;101210.00;;;28.23;32.52
4981;BME280;2507;50.392;7.482;2022-07-05T13:11:36;101194.97;;;28.85;31.53
4981;BME280;2507;50.392;7.482;2022-07-05T13:14:02;101197.59;;;28.98;30.33
4981;BME280;2507;50.392;7.482;2022-07-05T13:16:27;101206.66;;;28.40;31.62
4981;BME280;2507;50.392;7.482;2022-07-05T13:18:52;101223.22;;;27.72;32.11
4981;BME280;2507;50.392;7.482;2022-07-05T13:21:18;101211.09;;;27.35;31.92
4981;BME280;2507;50.392;7.482;2022-07-05T13:23:43;101210.28;;;27.35;31.95
4981;BME280;2507;50.392;7.482;2022-07-05T13:26:08;101212.59;;;27.57;31.79
4981;BME280;2507;50.392;7.482;2022-07-05T13:28:34;101213.28;;;27.92;32.27